createdAt,value
2018-06-15T00:01:17.721Z,97769.45
2018-06-15T00:03:49.727Z,97780.45
2018-06-15T00:06:22.238Z,97780.98
2018-06-15T00:08:55.441Z,97782.33
2018-06-15T00:11:27.693Z,97783.64
2018-06-15T00:14:00.373Z,97782.09
2018-06-15T00:16:32.900Z,97782.30
2018-06-15T00:19:05.136Z,97787.39
2018-06-15T00:21:37.606Z,97785.22
2018-06-15T00:24:09.907Z,97783.29
2018-06-15T00:26:42.230Z,97783.06
2018-06-15T00:29:14.588Z,97777.38
2018-06-15T00:31:47.224Z,97778.14
2018-06-15T00:34:19.955Z,97780.53
2018-06-15T00:36:52.197Z,97778.14
2018-06-15T00:39:24.788Z,97782.41
2018-06-15T00:41:57.467Z,97786.45
2018-06-15T00:44:29.836Z,97792.36
2018-06-15T00:47:02.441Z,97798.03
2018-06-15T00:49:34.426Z,97800.14
2018-06-15T00:52:07.161Z,97805.23
2018-06-15T00:54:39.317Z,97807.98
2018-06-15T00:57:20.629Z,97811.37
2018-06-15T00:59:53.691Z,97812.16
2018-06-15T01:02:26.306Z,97811.56
2018-06-15T01:04:59.448Z,97806.77
2018-06-15T01:07:32.644Z,97809.73
2018-06-15T01:10:05.557Z,97818.59
2018-06-15T01:12:38.788Z,97816.95
2018-06-15T01:15:11.381Z,97828.01
2018-06-15T01:17:43.505Z,97823.68
2018-06-15T01:20:16.649Z,97828.77
2018-06-15T01:22:49.257Z,97832.58
2018-06-15T01:25:22.147Z,97836.55
2018-06-15T01:27:54.848Z,97831.16
2018-06-15T01:30:27.192Z,97839.53
2018-06-15T01:33:00.573Z,97842.69
2018-06-15T01:35:33.265Z,97846.98
2018-06-15T01:38:05.706Z,97867.50
2018-06-15T01:40:38.484Z,97862.31
2018-06-15T01:43:12.627Z,97870.95
2018-06-15T01:45:45.829Z,97866.64
2018-06-15T01:48:19.060Z,97867.99
2018-06-15T01:50:51.557Z,97877.67
2018-06-15T01:53:24.815Z,97877.87
2018-06-15T01:55:58.174Z,97884.66
2018-06-15T01:58:32.195Z,97880.27
2018-06-15T02:01:04.875Z,97890.20
2018-06-15T02:03:36.913Z,97889.68
2018-06-15T02:06:09.589Z,97893.19
2018-06-15T02:08:42.028Z,97896.41
2018-06-15T02:11:14.919Z,97899.92
2018-06-15T02:13:47.806Z,97897.16
2018-06-15T02:16:20.420Z,97897.76
2018-06-15T02:18:52.720Z,97902.02
2018-06-15T02:21:24.726Z,97901.20
2018-06-15T02:23:57.247Z,97900.11
2018-06-15T02:26:30.039Z,97899.03
2018-06-15T02:29:03.014Z,97896.12
2018-06-15T02:31:35.100Z,97904.48
2018-06-15T02:34:08.181Z,97906.06
2018-06-15T02:36:41.016Z,97903.89
2018-06-15T02:39:13.747Z,97901.50
2018-06-15T02:41:46.620Z,97907.59
2018-06-15T02:44:19.384Z,97906.48
2018-06-15T02:46:51.550Z,97908.31
2018-06-15T02:49:24.500Z,97906.97
2018-06-15T02:51:57.077Z,97910.52
2018-06-15T02:54:30.453Z,97912.16
2018-06-15T02:57:03.756Z,97918.06
2018-06-15T02:59:36.241Z,97928.89
2018-06-15T03:02:09.273Z,97919.48
2018-06-15T03:04:42.202Z,97919.93
2018-06-15T03:07:14.773Z,97933.31
2018-06-15T03:09:47.324Z,97933.91
2018-06-15T03:12:19.265Z,97931.70
2018-06-15T03:14:50.969Z,97928.48
2018-06-15T03:17:23.594Z,97937.13
2018-06-15T03:19:56.466Z,97936.01
2018-06-15T03:22:29.306Z,97944.15
2018-06-15T03:25:01.604Z,97944.08
2018-06-15T03:27:35.136Z,97945.42
2018-06-15T03:30:07.357Z,97953.27
2018-06-15T03:32:40.141Z,97947.66
2018-06-15T03:35:12.145Z,97947.14
2018-06-15T03:37:45.339Z,97947.66
2018-06-15T03:40:18.359Z,97952.52
2018-06-15T03:42:50.791Z,97945.80
2018-06-15T03:45:23.344Z,97941.46
2018-06-15T03:47:56.127Z,97957.45
2018-06-15T03:50:29.104Z,97950.98
2018-06-15T03:53:02.224Z,97950.98
2018-06-15T03:55:35.150Z,97953.68
2018-06-15T03:58:07.588Z,97952.06
2018-06-15T04:00:40.982Z,97950.23
2018-06-15T04:03:13.179Z,97951.58
2018-06-15T04:05:45.358Z,97947.84
2018-06-15T04:08:18.883Z,97956.51
2018-06-15T04:10:51.659Z,97953.52
2018-06-15T04:13:24.645Z,97960.84
2018-06-15T04:15:57.668Z,97957.59
2018-06-15T04:18:30.828Z,97950.30
2018-06-15T04:21:02.926Z,97957.59
2018-06-15T04:23:36.902Z,97964.88
2018-06-15T04:26:09.521Z,97964.92
2018-06-15T04:28:42.358Z,97965.73
2018-06-15T04:31:14.563Z,97972.77
2018-06-15T04:33:47.524Z,97963.88
2018-06-15T04:36:20.259Z,97965.52
2018-06-15T04:38:53.194Z,97975.45
2018-06-15T04:41:31.446Z,97967.38
2018-06-15T04:44:04.142Z,97960.36
2018-06-15T04:46:37.416Z,97965.52
2018-06-15T04:49:09.853Z,97962.30
2018-06-15T04:51:44.885Z,97954.75
2018-06-15T04:54:17.952Z,97964.57
2018-06-15T04:56:51.610Z,97965.73
2018-06-15T04:59:25.850Z,97953.91
2018-06-15T05:02:00.280Z,97956.26
2018-06-15T05:04:34.375Z,97948.30
2018-06-15T05:07:07.667Z,97950.53
2018-06-15T05:09:40.750Z,97938.72
2018-06-15T05:12:13.793Z,97949.19
2018-06-15T05:14:48.805Z,97955.50
2018-06-15T05:17:21.438Z,97950.34
2018-06-15T05:19:54.557Z,97947.49
2018-06-15T05:22:26.911Z,97947.49
2018-06-15T05:24:59.650Z,97959.61
2018-06-15T05:27:32.566Z,97946.48
2018-06-15T05:30:06.397Z,97946.22
2018-06-15T05:32:39.200Z,97947.00
2018-06-15T05:35:12.846Z,97950.52
2018-06-15T05:37:46.087Z,97942.44
2018-06-15T05:40:19.095Z,97938.17
2018-06-15T05:42:52.357Z,97939.52
2018-06-15T05:45:25.529Z,97941.76
2018-06-15T05:47:57.741Z,97939.89
2018-06-15T05:50:30.728Z,97936.60
2018-06-15T05:53:03.962Z,97929.94
2018-06-15T05:55:36.623Z,97936.37
2018-06-15T05:58:10.735Z,97926.42
2018-06-15T06:00:44.107Z,97928.89
2018-06-15T06:03:23.081Z,97923.80
2018-06-15T06:05:56.526Z,97927.02
2018-06-15T06:08:30.981Z,97920.95
2018-06-15T06:11:03.548Z,97932.77
2018-06-15T06:13:35.785Z,97922.81
2018-06-15T06:16:08.810Z,97926.09
2018-06-15T06:18:41.733Z,97924.20
2018-06-15T06:21:14.720Z,97926.33
2018-06-15T06:23:51.600Z,97930.17
2018-06-15T06:26:24.784Z,97923.73
2018-06-15T06:28:59.514Z,97923.15
2018-06-15T06:31:32.721Z,97927.78
2018-06-15T06:34:05.760Z,97922.63
2018-06-15T06:36:38.928Z,97920.16
2018-06-15T06:39:14.696Z,97918.88
2018-06-15T06:41:47.504Z,97917.01
2018-06-15T06:44:22.999Z,97907.52
2018-06-15T06:46:56.795Z,97910.05
2018-06-15T06:49:31.009Z,97903.34
2018-06-15T06:52:04.506Z,97906.23
2018-06-15T06:54:37.200Z,97899.60
2018-06-15T06:57:11.003Z,97893.92
2018-06-15T06:59:44.834Z,97891.52
2018-06-15T07:02:18.751Z,97892.21
2018-06-15T07:04:51.703Z,97890.34
2018-06-15T07:07:25.057Z,97891.95
2018-06-15T07:09:57.530Z,97880.30
2018-06-15T07:12:32.064Z,97870.64
2018-06-15T07:15:05.846Z,97882.55
2018-06-15T07:17:38.908Z,97879.92
2018-06-15T07:20:12.050Z,97873.66
2018-06-15T07:22:45.131Z,97871.55
2018-06-15T07:25:18.837Z,97863.47
2018-06-15T07:27:52.160Z,97873.22
2018-06-15T07:30:24.974Z,97863.27
2018-06-15T07:32:57.476Z,97864.59
2018-06-15T07:35:30.579Z,97869.73
2018-06-15T07:38:04.516Z,97857.06
2018-06-15T07:40:37.078Z,97854.81
2018-06-15T07:43:10.763Z,97853.38
2018-06-15T07:45:44.401Z,97853.08
2018-06-15T07:48:18.666Z,97847.23
2018-06-15T07:50:53.318Z,97848.60
2018-06-15T07:53:26.127Z,97844.33
2018-06-15T07:55:59.436Z,97832.97
2018-06-15T07:58:32.976Z,97826.73
2018-06-15T08:01:05.359Z,97825.19
2018-06-15T08:03:38.640Z,97821.73
2018-06-15T08:06:12.092Z,97816.95
2018-06-15T08:08:47.163Z,97808.38
2018-06-15T08:11:19.585Z,97810.48
2018-06-15T08:13:52.209Z,97800.88
2018-06-15T08:16:24.901Z,97800.20
2018-06-15T08:18:57.412Z,97791.21
2018-06-15T08:21:30.169Z,97795.28
2018-06-15T08:24:03.700Z,97789.89
2018-06-15T08:26:36.887Z,97790.00
2018-06-15T08:29:10.683Z,97786.44
2018-06-15T08:31:43.842Z,97785.98
2018-06-15T08:34:17.741Z,97780.58
2018-06-15T08:36:50.631Z,97780.28
2018-06-15T08:39:23.504Z,97772.20
2018-06-15T08:41:56.777Z,97775.55
2018-06-15T08:44:29.511Z,97772.33
2018-06-15T08:47:02.939Z,97768.81
2018-06-15T08:49:35.401Z,97771.30
2018-06-15T08:52:09.840Z,97765.91
2018-06-15T08:54:43.503Z,97761.97
2018-06-15T08:57:16.110Z,97760.05
2018-06-15T08:59:49.592Z,97765.73
2018-06-15T09:02:23.079Z,97754.14
2018-06-15T09:04:55.693Z,97755.78
2018-06-15T09:07:29.806Z,97751.45
2018-06-15T09:10:02.531Z,97750.16
2018-06-15T09:12:35.067Z,97746.94
2018-06-15T09:15:07.744Z,97737.27
2018-06-15T09:17:41.040Z,97735.70
2018-06-15T09:20:14.536Z,97734.59
2018-06-15T09:22:47.474Z,97730.00
2018-06-15T09:25:21.227Z,97740.61
2018-06-15T09:27:54.609Z,97730.36
2018-06-15T09:30:27.907Z,97729.53
2018-06-15T09:33:01.498Z,97723.91
2018-06-15T09:35:35.622Z,97730.64
2018-06-15T09:38:09.262Z,97717.17
2018-06-15T09:40:42.331Z,97719.35
2018-06-15T09:43:15.698Z,97725.56
2018-06-15T09:45:49.005Z,97716.66
2018-06-15T09:48:22.031Z,97717.27
2018-06-15T09:50:54.985Z,97712.33
2018-06-15T09:53:29.316Z,97704.50
2018-06-15T09:56:03.003Z,97700.45
2018-06-15T09:58:36.023Z,97710.17
2018-06-15T10:01:10.963Z,97702.09
2018-06-15T10:03:43.746Z,97703.95
2018-06-15T10:06:16.606Z,97700.98
2018-06-15T10:08:50.260Z,97700.25
2018-06-15T10:11:24.435Z,97701.27
2018-06-15T10:13:56.854Z,97699.39
2018-06-15T10:16:29.963Z,97693.47
2018-06-15T10:19:02.521Z,97688.12
2018-06-15T10:21:36.135Z,97687.55
2018-06-15T10:24:10.100Z,97686.25
2018-06-15T10:26:43.637Z,97675.22
2018-06-15T10:29:16.879Z,97674.93
2018-06-15T10:31:50.423Z,97678.03
2018-06-15T10:34:23.652Z,97673.41
2018-06-15T10:36:56.927Z,97675.85
2018-06-15T10:39:29.950Z,97669.90
2018-06-15T10:42:03.347Z,97668.02
2018-06-15T10:44:35.942Z,97665.32
2018-06-15T10:47:09.068Z,97657.80
2018-06-15T10:49:41.955Z,97662.14
2018-06-15T10:52:14.768Z,97659.20
2018-06-15T10:54:49.201Z,97656.26
2018-06-15T10:57:22.857Z,97664.88
2018-06-15T10:59:55.947Z,97650.86
2018-06-15T11:02:28.259Z,97654.63
2018-06-15T11:05:01.057Z,97658.63
2018-06-15T11:07:34.214Z,97651.35
2018-06-15T11:10:07.137Z,97648.17
2018-06-15T11:12:40.366Z,97650.34
2018-06-15T11:15:13.670Z,97636.80
2018-06-15T11:17:47.067Z,97638.44
2018-06-15T11:20:20.622Z,97639.55
2018-06-15T11:22:54.534Z,97642.31
2018-06-15T11:25:27.895Z,97638.78
2018-06-15T11:28:00.976Z,97637.44
2018-06-15T11:30:33.398Z,97627.75
2018-06-15T11:33:06.645Z,97629.09
2018-06-15T11:35:39.727Z,97635.56
2018-06-15T11:38:13.089Z,97633.16
2018-06-15T11:40:46.752Z,97635.56
2018-06-15T11:43:21.112Z,97631.80
2018-06-15T11:45:53.878Z,97630.74
2018-06-15T11:48:26.695Z,97635.85
2018-06-15T11:50:59.973Z,97636.38
2018-06-15T11:53:33.180Z,97641.00
2018-06-15T11:56:06.698Z,97636.45
2018-06-15T11:58:39.421Z,97640.70
2018-06-15T12:01:12.890Z,97634.20
2018-06-15T12:03:45.972Z,97639.44
2018-06-15T12:06:18.744Z,97639.44
2018-06-15T12:08:51.792Z,97635.39
2018-06-15T12:11:24.995Z,97638.92
2018-06-15T12:14:18.026Z,97640.55
2018-06-15T12:16:55.815Z,97637.03
2018-06-15T12:19:28.396Z,97641.53
2018-06-15T12:22:00.896Z,97641.60
2018-06-15T12:24:34.114Z,97649.98
2018-06-15T12:27:06.945Z,97650.52
2018-06-15T12:29:40.373Z,97653.21
2018-06-15T12:33:36.776Z,97656.20
2018-06-15T12:36:09.706Z,97654.20
2018-06-15T12:38:42.754Z,97655.63
2018-06-15T12:41:15.917Z,97659.06
2018-06-15T12:44:03.988Z,97658.78
2018-06-15T12:46:42.779Z,97657.96
2018-06-15T12:49:16.451Z,97664.98
2018-06-15T12:51:49.992Z,97667.14
2018-06-15T12:54:22.586Z,97663.05
2018-06-15T12:56:55.754Z,97670.58
2018-06-15T12:59:28.911Z,97671.10
2018-06-15T13:02:02.875Z,97673.26
2018-06-15T13:04:36.270Z,97671.92
2018-06-15T13:07:09.910Z,97667.63
2018-06-15T13:09:43.034Z,97672.50
2018-06-15T13:12:16.415Z,97671.34
2018-06-15T13:14:49.528Z,97676.25
2018-06-15T13:17:22.864Z,97674.09
2018-06-15T13:19:55.840Z,97675.20
2018-06-15T13:22:29.824Z,97680.02
2018-06-15T13:25:03.976Z,97683.00
2018-06-15T13:27:37.847Z,97693.74
2018-06-15T13:30:11.037Z,97691.86
2018-06-15T13:32:44.483Z,97692.09
2018-06-15T13:35:17.168Z,97692.16
2018-06-15T13:37:50.414Z,97691.31
2018-06-15T13:40:23.738Z,97690.45
2018-06-15T13:42:57.167Z,97695.32
2018-06-15T13:45:30.039Z,97692.05
2018-06-15T13:48:03.358Z,97691.52
2018-06-15T13:50:35.982Z,97689.87
2018-06-15T13:53:09.140Z,97689.59
2018-06-15T13:55:41.463Z,97690.40
2018-06-15T13:58:14.977Z,97688.25
2018-06-15T14:00:48.348Z,97684.19
2018-06-15T14:03:21.840Z,97684.72
2018-06-15T14:05:55.201Z,97689.53
2018-06-15T14:08:28.817Z,97694.69
2018-06-15T14:11:02.313Z,97692.80
2018-06-15T14:13:35.465Z,97700.66
2018-06-15T14:16:09.120Z,97701.72
2018-06-15T14:18:42.075Z,97699.26
2018-06-15T14:21:15.397Z,97703.59
2018-06-15T14:23:48.885Z,97710.34
2018-06-15T14:26:22.608Z,97708.41
2018-06-15T14:28:55.627Z,97707.34
2018-06-15T14:31:28.951Z,97711.68
2018-06-15T14:34:02.658Z,97717.08
2018-06-15T14:36:36.300Z,97711.92
2018-06-15T14:39:12.720Z,97719.70
2018-06-15T14:41:45.776Z,97717.02
2018-06-15T14:44:18.930Z,97720.78
2018-06-15T14:46:51.597Z,97722.41
2018-06-15T14:49:24.320Z,97729.14
2018-06-15T14:51:57.596Z,97731.55
2018-06-15T14:54:31.188Z,97732.63
2018-06-15T14:57:04.386Z,97736.14
2018-06-15T14:59:38.453Z,97730.75
2018-06-15T15:02:11.344Z,97730.75
2018-06-15T15:04:44.930Z,97731.27
2018-06-15T15:07:18.574Z,97733.19
2018-06-15T15:09:52.306Z,97732.10
2018-06-15T15:12:25.890Z,97735.38
2018-06-15T15:15:02.549Z,97743.46
2018-06-15T15:17:37.196Z,97748.56
2018-06-15T15:20:10.503Z,97748.28
2018-06-15T15:22:43.804Z,97750.97
2018-06-15T15:25:16.776Z,97759.87
2018-06-15T15:27:50.248Z,97753.13
2018-06-15T15:30:24.063Z,97756.64
2018-06-15T15:32:56.654Z,97764.45
2018-06-15T15:35:30.367Z,97761.22
2018-06-15T15:38:03.727Z,97760.39
2018-06-15T15:40:36.652Z,97767.73
2018-06-15T15:43:10.543Z,97773.55
2018-06-15T15:45:43.667Z,97773.47
2018-06-15T15:48:16.774Z,97772.19
2018-06-15T15:50:50.135Z,97777.30
2018-06-15T15:53:23.255Z,97775.95
2018-06-15T15:55:57.300Z,97773.54
2018-06-15T15:58:30.177Z,97787.02
2018-06-15T16:01:03.868Z,97793.23
2018-06-15T16:03:37.786Z,97794.05
2018-06-15T16:06:11.330Z,97795.11
2018-06-15T16:08:44.472Z,97796.45
2018-06-15T16:11:18.307Z,97797.80
2018-06-15T16:13:51.355Z,97796.75
2018-06-15T16:16:24.833Z,97794.00
2018-06-15T16:18:58.045Z,97801.84
2018-06-15T16:21:31.490Z,97801.01
2018-06-15T16:24:04.472Z,97801.54
2018-06-15T16:26:38.093Z,97802.36
2018-06-15T16:29:11.398Z,97803.70
2018-06-15T16:31:45.378Z,97803.70
2018-06-15T16:34:19.116Z,97803.95
2018-06-15T16:36:52.699Z,97803.41
2018-06-15T16:39:26.447Z,97804.77
2018-06-15T16:42:00.295Z,97808.52
2018-06-15T16:44:33.475Z,97811.98
2018-06-15T16:47:07.539Z,97814.66
2018-06-15T16:49:40.933Z,97814.89
2018-06-15T16:52:14.665Z,97824.91
2018-06-15T16:54:48.065Z,97826.81
2018-06-15T16:57:21.536Z,97816.53
2018-06-15T16:59:54.841Z,97818.64
2018-06-15T17:02:29.128Z,97814.89
2018-06-15T17:05:02.225Z,97819.17
2018-06-15T17:07:35.931Z,97814.89
2018-06-15T17:10:09.125Z,97813.25
2018-06-15T17:12:42.854Z,97815.13
2018-06-15T17:15:16.450Z,97817.83
2018-06-15T17:17:49.693Z,97822.16
2018-06-15T17:20:24.713Z,97821.34
2018-06-15T17:22:57.734Z,97822.58
2018-06-15T17:25:31.361Z,97828.81
2018-06-15T17:28:05.325Z,97824.22
2018-06-15T17:30:38.443Z,97825.33
2018-06-15T17:33:12.496Z,97827.63
2018-06-15T17:35:45.906Z,97830.03
2018-06-15T17:38:19.577Z,97841.02
2018-06-15T17:40:53.361Z,97845.59
2018-06-15T17:43:26.966Z,97841.31
2018-06-15T17:46:00.659Z,97841.31
2018-06-15T17:48:34.076Z,97847.09
2018-06-15T17:51:07.159Z,97856.67
2018-06-15T17:53:41.071Z,97855.11
2018-06-15T17:56:14.618Z,97851.05
2018-06-15T17:58:48.304Z,97849.11
2018-06-15T18:01:21.945Z,97855.32
2018-06-15T18:03:55.610Z,97858.31
2018-06-15T18:06:28.865Z,97857.22
2018-06-15T18:09:02.528Z,97854.00
2018-06-15T18:11:35.988Z,97848.90
2018-06-15T18:14:09.794Z,97854.53
2018-06-15T18:16:43.565Z,97850.48
2018-06-15T18:19:17.954Z,97852.64
2018-06-15T18:21:51.972Z,97852.72
2018-06-15T18:24:26.349Z,97853.08
2018-06-15T18:26:59.773Z,97849.34
2018-06-15T18:29:33.564Z,97855.20
2018-06-15T18:32:07.137Z,97856.38
2018-06-15T18:34:40.585Z,97858.55
2018-06-15T18:37:14.137Z,97852.92
2018-06-15T18:39:47.816Z,97853.09
2018-06-15T18:42:21.299Z,97852.86
2018-06-15T18:44:54.859Z,97855.80
2018-06-15T18:47:28.071Z,97864.75
2018-06-15T18:50:01.694Z,97864.75
2018-06-15T18:52:34.682Z,97860.71
2018-06-15T18:55:07.767Z,97866.63
2018-06-15T18:57:41.119Z,97862.53
2018-06-15T19:00:14.591Z,97860.34
2018-06-15T19:02:47.962Z,97859.84
2018-06-15T19:05:20.561Z,97856.32
2018-06-15T19:07:54.043Z,97861.16
2018-06-15T19:10:27.890Z,97861.39
2018-06-15T19:13:02.754Z,97854.66
2018-06-15T19:15:36.278Z,97854.95
2018-06-15T19:18:09.674Z,97851.53
2018-06-15T19:20:43.803Z,97852.80
2018-06-15T19:23:17.775Z,97845.61
2018-06-15T19:25:51.387Z,97854.02
2018-06-15T19:28:24.916Z,97853.70
2018-06-15T19:30:58.059Z,97847.25
2018-06-15T19:33:30.973Z,97843.77
2018-06-15T19:36:04.689Z,97848.59
2018-06-15T19:38:38.015Z,97837.84
2018-06-15T19:41:11.500Z,97830.58
2018-06-15T19:43:44.878Z,97837.30
2018-06-15T19:46:18.597Z,97824.64
2018-06-15T19:48:51.744Z,97835.67
2018-06-15T19:51:24.908Z,97830.29
2018-06-15T19:53:58.366Z,97828.39
2018-06-15T19:56:31.923Z,97821.07
2018-06-15T19:59:04.974Z,97823.23
2018-06-15T20:01:38.696Z,97810.29
2018-06-15T20:04:11.838Z,97802.97
2018-06-15T20:06:44.990Z,97811.58
2018-06-15T20:09:17.992Z,97807.54
2018-06-15T20:11:51.725Z,97804.02
2018-06-15T20:14:25.072Z,97806.72
2018-06-15T20:16:58.317Z,97809.16
2018-06-15T20:19:31.271Z,97804.84
2018-06-15T20:22:04.770Z,97802.12
2018-06-15T20:24:37.832Z,97796.73
2018-06-15T20:27:10.848Z,97795.09
2018-06-15T20:29:43.881Z,97808.34
2018-06-15T20:32:17.042Z,97801.84
2018-06-15T20:34:50.366Z,97797.80
2018-06-15T20:37:24.081Z,97796.73
2018-06-15T20:39:56.851Z,97795.92
2018-06-15T20:42:30.658Z,97801.02
2018-06-15T20:45:04.088Z,97792.88
2018-06-15T20:47:37.691Z,97788.55
2018-06-15T20:50:10.912Z,97783.45
2018-06-15T20:52:43.928Z,97786.14
2018-06-15T20:55:17.264Z,97786.35
2018-06-15T20:57:50.795Z,97790.16
2018-06-15T21:00:24.663Z,97786.94
2018-06-15T21:02:57.665Z,97782.31
2018-06-15T21:05:30.763Z,97786.59
2018-06-15T21:08:03.245Z,97784.13
2018-06-15T21:10:36.003Z,97784.19
2018-06-15T21:13:08.815Z,97777.98
2018-06-15T21:15:41.692Z,97775.52
2018-06-15T21:18:14.489Z,97782.55
2018-06-15T21:20:48.046Z,97789.19
2018-06-15T21:23:21.824Z,97790.02
2018-06-15T21:25:55.180Z,97790.52
2018-06-15T21:28:28.707Z,97788.05
2018-06-15T21:31:02.062Z,97799.59
2018-06-15T21:33:34.869Z,97798.22
2018-06-15T21:36:07.399Z,97802.29
2018-06-15T21:38:40.114Z,97810.08
2018-06-15T21:41:13.035Z,97810.66
2018-06-15T21:43:46.675Z,97804.98
2018-06-15T21:46:19.774Z,97807.13
2018-06-15T21:48:52.357Z,97810.89
2018-06-15T21:51:25.699Z,97810.58
2018-06-15T21:53:58.932Z,97812.22
2018-06-15T21:56:31.817Z,97812.22
2018-06-15T21:59:04.679Z,97809.81
2018-06-15T22:01:37.487Z,97808.99
2018-06-15T22:04:10.643Z,97807.30
2018-06-15T22:06:43.669Z,97808.34
2018-06-15T22:09:16.281Z,97812.39
2018-06-15T22:11:48.803Z,97820.23
2018-06-15T22:14:22.051Z,97822.11
2018-06-15T22:16:55.559Z,97824.74
2018-06-15T22:19:28.621Z,97826.35
2018-06-15T22:22:01.511Z,97827.70
2018-06-15T22:24:35.059Z,97829.52
2018-06-15T22:27:08.506Z,97830.86
2018-06-15T22:29:41.640Z,97834.05
2018-06-15T22:32:15.038Z,97839.44
2018-06-15T22:34:48.164Z,97840.78
2018-06-15T22:37:21.781Z,97843.64
2018-06-15T22:39:54.781Z,97843.18
2018-06-15T22:42:28.133Z,97853.45
2018-06-15T22:45:01.687Z,97851.81
2018-06-15T22:47:34.889Z,97844.00
2018-06-15T22:50:08.102Z,97845.38
2018-06-15T22:52:41.372Z,97848.04
2018-06-15T22:55:14.423Z,97846.34
2018-06-15T22:57:47.779Z,97840.95
2018-06-15T23:00:27.275Z,97846.05
2018-06-15T23:03:00.620Z,97847.36
2018-06-15T23:05:33.906Z,97848.15
2018-06-15T23:08:06.644Z,97849.23
2018-06-15T23:10:40.164Z,97852.19
2018-06-15T23:13:12.402Z,97850.84
2018-06-15T23:15:45.800Z,97851.92
2018-06-15T23:18:18.914Z,97854.33
2018-06-15T23:20:52.374Z,97859.12
2018-06-15T23:23:25.237Z,97852.69
2018-06-15T23:25:59.120Z,97857.19
2018-06-15T23:28:31.796Z,97863.09
2018-06-15T23:31:05.326Z,97861.22
2018-06-15T23:33:38.385Z,97867.92
2018-06-15T23:36:11.211Z,97874.69
2018-06-15T23:38:43.841Z,97881.91
2018-06-15T23:41:16.773Z,97881.91
2018-06-15T23:43:49.254Z,97884.30
2018-06-15T23:46:22.216Z,97892.97
2018-06-15T23:48:55.436Z,97893.14
2018-06-15T23:51:29.383Z,97894.78
2018-06-15T23:54:02.610Z,97896.13
2018-06-15T23:56:35.725Z,97895.83
2018-06-15T23:59:08.782Z,97906.23
